Time;durP1;ratioP1;P1;durP2;ratioP2;P2;SDS_P1;SDS_P2;PMS_P1;PMS_P2;Temp;Humidity;BMP_temperature;BMP_pressure;BME280_temperature;BME280_humidity;BME280_pressure;Samples;Min_cycle;Max_cycle;Signal;HPM_P1;HPM_P2
2023/12/12 00:02:11;;;;;;;;;;;;;;;17.16;45.54;98906.91;10328140;28;883;-72
2023/12/12 00:07:07;;;;;;;;;;;;;;;17.15;45.64;98894.66;10327287;28;790;-72
2023/12/12 00:12:03;;;;;;;;;;;;;;;17.14;45.72;98900.84;10326408;28;1897;-72
2023/12/12 00:16:59;;;;;;;;;;;;;;;17.13;45.64;98896.50;10326684;28;821;-72
2023/12/12 00:21:55;;;;;;;;;;;;;;;17.14;45.53;98907.91;10326824;28;865;-71
2023/12/12 00:26:51;;;;;;;;;;;;;;;17.13;45.56;98904.41;10327316;28;898;-72
2023/12/12 00:31:47;;;;;;;;;;;;;;;17.14;45.48;98903.50;10327076;28;1902;-71
2023/12/12 00:36:43;;;;;;;;;;;;;;;17.13;45.58;98896.50;10325708;28;1430;-71
2023/12/12 00:41:39;;;;;;;;;;;;;;;17.13;45.49;98899.13;10326295;28;1007;-71
2023/12/12 00:46:35;;;;;;;;;;;;;;;17.12;45.40;98889.56;10326658;28;846;-71
2023/12/12 00:51:32;;;;;;;;;;;;;;;17.12;45.40;98894.81;10326414;28;1913;-71
2023/12/12 00:56:28;;;;;;;;;;;;;;;17.11;45.38;98906.28;10326361;28;829;-71
2023/12/12 01:01:24;;;;;;;;;;;;;;;17.13;45.45;98896.50;10325653;28;829;-71
2023/12/12 01:06:20;;;;;;;;;;;;;;;17.13;45.50;98898.28;10324899;28;933;-71
2023/12/12 01:11:15;;;;;;;;;;;;;;;17.10;45.68;98891.41;10325369;28;1898;-71
2023/12/12 01:16:11;;;;;;;;;;;;;;;17.09;45.34;98889.72;10325337;28;793;-72
2023/12/12 01:21:07;;;;;;;;;;;;;;;17.10;45.38;98888.78;10325254;28;783;-71
2023/12/12 01:26:03;;;;;;;;;;;;;;;17.09;45.35;98890.56;10327419;28;893;-71
2023/12/12 01:30:59;;;;;;;;;;;;;;;17.12;45.30;98899.25;10334361;28;1909;-71
2023/12/12 01:35:55;;;;;;;;;;;;;;;17.08;45.52;98896.78;10333544;28;1136;-71
2023/12/12 01:40:51;;;;;;;;;;;;;;;17.11;45.23;98894.88;10332504;28;1008;-72
2023/12/12 01:45:47;;;;;;;;;;;;;;;17.08;45.32;98895.91;10332829;28;1649;-72
2023/12/12 01:50:43;;;;;;;;;;;;;;;17.09;45.37;98898.47;10333190;28;1906;-72
2023/12/12 01:55:38;;;;;;;;;;;;;;;17.08;45.25;98902.03;10331893;28;865;-72
2023/12/12 02:00:35;;;;;;;;;;;;;;;17.06;45.44;98900.44;10332255;28;825;-72
2023/12/12 02:05:30;;;;;;;;;;;;;;;17.05;45.50;98894.28;10332729;28;933;-71
2023/12/12 02:10:26;;;;;;;;;;;;;;;17.07;45.21;98888.94;10331275;28;1890;-71
2023/12/12 02:15:23;;;;;;;;;;;;;;;17.06;45.34;98882.00;10331687;28;906;-71
2023/12/12 02:20:18;;;;;;;;;;;;;;;17.05;45.57;98880.28;10331595;28;821;-71
2023/12/12 02:25:14;;;;;;;;;;;;;;;17.04;45.36;98883.84;10331573;28;788;-72
2023/12/12 02:30:10;;;;;;;;;;;;;;;17.04;45.36;98883.84;10331161;28;1950;-71
2023/12/12 02:35:06;;;;;;;;;;;;;;;17.02;45.51;98878.66;10330947;28;1587;-71
2023/12/12 02:40:03;;;;;;;;;;;;;;;17.02;45.64;98881.28;10329959;28;814;-71
2023/12/12 02:44:59;;;;;;;;;;;;;;;17.00;45.47;98880.53;10330664;28;858;-71
2023/12/12 02:49:55;;;;;;;;;;;;;;;16.99;45.53;98877.97;10331009;28;1914;-71
2023/12/12 02:54:50;;;;;;;;;;;;;;;17.00;45.29;98882.31;10329693;28;826;-71
2023/12/12 02:59:46;;;;;;;;;;;;;;;17.01;45.46;98886.66;10330707;28;902;-72
2023/12/12 03:04:43;;;;;;;;;;;;;;;16.99;45.34;98889.34;10330078;28;757;-71
2023/12/12 03:09:39;;;;;;;;;;;;;;;16.99;45.44;98884.09;10329780;28;790;-71
2023/12/12 03:14:34;;;;;;;;;;;;;;;16.99;45.39;98886.72;10330062;28;1885;-71
2023/12/12 03:19:30;;;;;;;;;;;;;;;16.99;45.33;98883.25;10329242;28;794;-72
2023/12/12 03:24:27;;;;;;;;;;;;;;;16.99;45.32;98878.81;10329706;28;920;-72
2023/12/12 03:29:22;;;;;;;;;;;;;;;16.99;45.48;98873.56;10329198;28;930;-72
2023/12/12 03:34:18;;;;;;;;;;;;;;;16.99;45.42;98870.09;10328957;28;1898;-71
2023/12/12 03:39:14;;;;;;;;;;;;;;;16.99;45.44;98867.44;10328600;28;759;-72
2023/12/12 03:44:10;;;;;;;;;;;;;;;16.99;45.38;98870.09;10328920;28;841;-72
2023/12/12 03:49:06;;;;;;;;;;;;;;;16.97;45.27;98872.78;10327365;28;861;-72
2023/12/12 03:54:02;;;;;;;;;;;;;;;16.97;45.41;98869.31;10328592;28;1918;-72
2023/12/12 03:58:58;;;;;;;;;;;;;;;16.97;45.27;98866.69;10328342;28;841;-72
2023/12/12 04:03:55;;;;;;;;;;;;;;;16.96;45.41;98865.84;10328237;28;987;-72
2023/12/12 04:08:51;;;;;;;;;;;;;;;16.96;45.27;98855.31;10327928;28;917;-71
2023/12/12 04:13:46;;;;;;;;;;;;;;;16.95;45.41;98856.25;10327232;28;1959;-71
2023/12/12 04:18:42;;;;;;;;;;;;;;;16.96;45.49;98865.00;10326943;28;964;-71
2023/12/12 04:23:42;;;;;;;;;;;;;;;16.94;45.33;98857.16;10327407;28;806;-71
2023/12/12 04:28:38;;;;;;;;;;;;;;;16.95;45.27;98856.25;10326569;28;798;-71
2023/12/12 04:33:34;;;;;;;;;;;;;;;16.94;45.28;98846.63;10326944;28;1949;-72
2023/12/12 04:38:30;;;;;;;;;;;;;;;16.95;45.38;98844.84;10325528;28;1156;-71
2023/12/12 04:43:25;;;;;;;;;;;;;;;16.98;45.33;98837.66;10326106;28;878;-71
2023/12/12 04:48:21;;;;;;;;;;;;;;;17.01;45.27;98839.28;10326019;28;846;-71
2023/12/12 04:53:17;;;;;;;;;;;;;;;17.00;45.37;98838.44;10325812;28;1975;-71
2023/12/12 04:58:13;;;;;;;;;;;;;;;17.06;45.21;98831.97;10325166;28;855;-71
2023/12/12 05:03:09;;;;;;;;;;;;;;;17.07;45.18;98823.13;10325569;28;840;-72
2023/12/12 05:08:05;;;;;;;;;;;;;;;17.10;45.02;98820.31;10326160;28;945;-71
2023/12/12 05:13:01;;;;;;;;;;;;;;;17.15;45.03;98827.97;10325371;28;1893;-72
2023/12/12 05:17:57;;;;;;;;;;;;;;;17.18;45.12;98814.63;10326117;28;846;-72
2023/12/12 05:22:53;;;;;;;;;;;;;;;17.20;45.31;98816.25;10325814;28;822;-70
2023/12/12 05:27:49;;;;;;;;;;;;;;;17.17;45.31;98810.31;10325105;28;878;-69
2023/12/12 05:32:45;;;;;;;;;;;;;;;17.16;45.68;98811.22;10324795;28;1890;-70
2023/12/12 05:37:40;;;;;;;;;;;;;;;17.16;45.43;98817.38;10324215;28;1271;-70
2023/12/12 05:42:36;;;;;;;;;;;;;;;17.17;45.28;98816.41;10324764;28;841;-70
2023/12/12 05:47:32;;;;;;;;;;;;;;;17.19;45.19;98813.72;10324183;28;909;-69
2023/12/12 05:52:28;;;;;;;;;;;;;;;17.20;45.21;98805.72;10324658;28;1976;-70
2023/12/12 05:57:24;;;;;;;;;;;;;;;17.17;45.33;98798.00;10324579;28;845;-75
2023/12/12 06:02:20;;;;;;;;;;;;;;;17.12;45.52;98813.19;10324437;28;902;-70
2023/12/12 06:07:16;;;;;;;;;;;;;;;16.94;45.72;98808.94;10325064;28;929;-72
2023/12/12 06:12:12;;;;;;;;;;;;;;;17.04;45.67;98807.50;10326292;28;1894;-71
2023/12/12 06:17:08;;;;;;;;;;;;;;;17.11;45.26;98798.34;10331716;28;884;-71
2023/12/12 06:22:04;;;;;;;;;;;;;;;17.05;45.48;98793.41;10332292;28;844;-72
2023/12/12 06:27:00;;;;;;;;;;;;;;;17.12;45.18;98792.13;10331319;28;890;-71
2023/12/12 06:31:56;;;;;;;;;;;;;;;17.21;45.17;98798.66;10330536;28;1960;-72
2023/12/12 06:36:51;;;;;;;;;;;;;;;17.17;45.52;98794.50;10329578;28;1609;-72
2023/12/12 06:41:47;;;;;;;;;;;;;;;17.19;45.49;98777.69;10328555;28;849;-71
2023/12/12 06:46:43;;;;;;;;;;;;;;;17.14;45.39;98771.84;10328352;28;846;-71
2023/12/12 06:51:39;;;;;;;;;;;;;;;17.10;45.60;98775.56;10328150;28;1971;-71
2023/12/12 06:56:35;;;;;;;;;;;;;;;17.14;45.39;98771.00;10328624;28;909;-73
2023/12/12 07:01:31;;;;;;;;;;;;;;;17.18;45.28;98783.03;10328513;28;878;-70
2023/12/12 07:06:27;;;;;;;;;;;;;;;17.26;45.15;98779.03;10328518;28;826;-71
2023/12/12 07:11:23;;;;;;;;;;;;;;;17.28;45.06;98782.44;10327953;28;1898;-72
2023/12/12 07:16:19;;;;;;;;;;;;;;;17.30;45.18;98791.09;10328001;28;823;-74
2023/12/12 07:21:15;;;;;;;;;;;;;;;17.26;45.27;98786.91;10327872;28;767;-69
2023/12/12 07:26:12;;;;;;;;;;;;;;;17.21;45.32;98785.50;10326452;28;847;-74
2023/12/12 07:31:10;;;;;;;;;;;;;;;17.30;45.05;98793.72;10326733;28;1898;-72
2023/12/12 07:36:06;;;;;;;;;;;;;;;17.27;45.36;98782.53;10287691;28;1135049;-71
2023/12/12 07:41:01;;;;;;;;;;;;;;;17.20;45.60;98787.28;10328506;28;955;-70
2023/12/12 07:45:57;;;;;;;;;;;;;;;17.13;45.50;98771.91;10328945;28;843;-71
2023/12/12 07:50:55;;;;;;;;;;;;;;;17.12;45.51;98767.59;10328102;28;1909;-71
2023/12/12 07:55:51;;;;;;;;;;;;;;;17.09;45.53;98768.59;10327882;28;981;-71
2023/12/12 08:00:47;;;;;;;;;;;;;;;17.14;45.62;98766.56;10327658;28;957;-71
2023/12/12 08:05:44;;;;;;;;;;;;;;;17.16;45.21;98751.53;10327590;28;833;-70
2023/12/12 08:10:40;;;;;;;;;;;;;;;17.17;45.33;98750.59;10327887;28;1886;-71
2023/12/12 08:15:36;;;;;;;;;;;;;;;17.19;45.26;98748.72;10327491;28;797;-70
2023/12/12 08:20:32;;;;;;;;;;;;;;;17.23;45.38;98744.97;10326989;28;933;-70
2023/12/12 08:25:28;;;;;;;;;;;;;;;17.24;45.29;98746.69;10326762;28;1336;-71
2023/12/12 08:30:24;;;;;;;;;;;;;;;17.29;45.20;98744.63;10326544;28;1894;-70
2023/12/12 08:35:20;;;;;;;;;;;;;;;17.28;45.26;98748.19;10326342;28;1433;-71
2023/12/12 08:40:16;;;;;;;;;;;;;;;17.29;45.32;98736.72;10327093;28;818;-71
2023/12/12 08:45:11;;;;;;;;;;;;;;;17.32;45.10;98733.06;10326106;28;917;-71
2023/12/12 08:50:09;;;;;;;;;;;;;;;17.32;45.00;98719.91;10326555;28;1971;-71
2023/12/12 08:55:05;;;;;;;;;;;;;;;17.35;45.12;98714.47;10325247;28;968;-71
2023/12/12 09:00:02;;;;;;;;;;;;;;;17.37;44.94;98703.81;10325755;28;842;-70
2023/12/12 09:04:58;;;;;;;;;;;;;;;17.38;45.11;98706.38;10326207;28;885;-71
2023/12/12 09:09:54;;;;;;;;;;;;;;;17.39;44.93;98707.22;10326116;28;876;-70
2023/12/12 09:14:50;;;;;;;;;;;;;;;17.44;44.77;98708.63;10325567;28;1969;-71
2023/12/12 09:19:46;;;;;;;;;;;;;;;17.41;45.13;98700.91;10325956;28;823;-70
2023/12/12 09:24:41;;;;;;;;;;;;;;;17.42;44.92;98697.38;10325918;28;1012;-70
2023/12/12 09:29:37;;;;;;;;;;;;;;;17.44;44.84;98686.72;10325109;28;858;-71
2023/12/12 09:34:33;;;;;;;;;;;;;;;17.45;45.02;98688.44;10324333;28;1951;-71
2023/12/12 09:39:29;;;;;;;;;;;;;;;17.46;45.02;98677.78;10324986;28;817;-70
2023/12/12 09:44:26;;;;;;;;;;;;;;;17.46;44.97;98674.31;10325418;28;902;-71
2023/12/12 09:49:22;;;;;;;;;;;;;;;17.47;44.92;98665.47;10331306;28;794;-71
2023/12/12 09:54:17;;;;;;;;;;;;;;;17.45;44.74;98648.91;10332397;28;1917;-71
2023/12/12 09:59:13;;;;;;;;;;;;;;;17.48;44.84;98646.09;10333120;28;822;-72
2023/12/12 10:04:09;;;;;;;;;;;;;;;17.51;44.83;98640.66;10332278;28;853;-71
2023/12/12 10:09:06;;;;;;;;;;;;;;;17.49;45.13;98629.34;10332700;28;924;-71
2023/12/12 10:14:01;;;;;;;;;;;;;;;17.52;45.00;98619.47;10332675;28;1894;-71
2023/12/12 10:18:58;;;;;;;;;;;;;;;17.57;45.04;98605.16;10332362;28;834;-71
2023/12/12 10:23:54;;;;;;;;;;;;;;;17.56;45.04;98588.53;10331583;28;865;-71
2023/12/12 10:28:50;;;;;;;;;;;;;;;17.57;45.03;98587.56;10332193;28;845;-72
2023/12/12 10:33:46;;;;;;;;;;;;;;;17.55;44.90;98578.91;10331714;28;1890;-71
2023/12/12 10:38:44;;;;;;;;;;;;;;;17.58;44.91;98576.09;10332053;28;1381;-71
2023/12/12 10:43:40;;;;;;;;;;;;;;;17.58;44.94;98564.69;10330784;28;879;-71
2023/12/12 10:48:36;;;;;;;;;;;;;;;17.60;44.82;98553.13;10331241;28;929;-70
2023/12/12 10:53:32;;;;;;;;;;;;;;;17.60;44.97;98544.38;10330957;28;1971;-70
2023/12/12 10:58:28;;;;;;;;;;;;;;;17.59;45.05;98540.06;10330100;28;798;-70
2023/12/12 11:03:24;;;;;;;;;;;;;;;17.62;44.90;98537.22;10330724;28;838;-71
2023/12/12 11:08:20;;;;;;;;;;;;;;;17.62;45.07;98531.97;10330731;28;840;-70
2023/12/12 11:13:16;;;;;;;;;;;;;;;17.65;44.91;98513.31;10330259;28;1967;-70
2023/12/12 11:18:12;;;;;;;;;;;;;;;17.66;44.94;98499.22;10329580;28;901;-70
2023/12/12 11:23:08;;;;;;;;;;;;;;;17.69;44.83;98477.94;10329974;28;859;-70
2023/12/12 11:28:04;;;;;;;;;;;;;;;17.70;44.97;98483.09;10329836;28;1037;-71
2023/12/12 11:33:03;;;;;;;;;;;;;;;17.71;44.67;98476.91;10328824;28;1897;-71
2023/12/12 11:37:59;;;;;;;;;;;;;;;17.73;44.88;98467.09;10310887;28;1307;-71
2023/12/12 11:42:55;;;;;;;;;;;;;;;17.77;44.69;98462.50;10328576;28;806;-71
2023/12/12 11:47:51;;;;;;;;;;;;;;;17.77;44.68;98453.75;10328358;28;863;-71
2023/12/12 11:52:46;;;;;;;;;;;;;;;17.82;44.55;98446.41;10328357;28;1969;-72
2023/12/12 11:57:42;;;;;;;;;;;;;;;17.73;44.90;98440.72;10327336;28;1012;-72
2023/12/12 12:02:38;;;;;;;;;;;;;;;17.71;44.96;98440.00;10328357;28;880;-71
2023/12/12 12:07:34;;;;;;;;;;;;;;;17.77;44.60;98435.28;10327547;28;778;-71
2023/12/12 12:12:30;;;;;;;;;;;;;;;17.77;44.63;98425.59;10327242;28;1882;-71
2023/12/12 12:17:26;;;;;;;;;;;;;;;17.76;45.04;98413.34;10327152;28;965;-72
2023/12/12 12:22:22;;;;;;;;;;;;;;;17.76;45.00;98405.44;10326967;28;774;-74
2023/12/12 12:27:17;;;;;;;;;;;;;;;17.77;45.12;98390.50;10326758;28;854;-72
2023/12/12 12:32:13;;;;;;;;;;;;;;;17.75;45.19;98374.75;10327123;28;1893;-72
2023/12/12 12:37:09;;;;;;;;;;;;;;;17.74;45.07;98373.94;10326561;28;1281;-71
2023/12/12 12:42:05;;;;;;;;;;;;;;;17.77;45.11;98375.53;10326823;28;882;-71
2023/12/12 12:47:01;;;;;;;;;;;;;;;17.74;45.27;98367.81;10326736;28;889;-72
2023/12/12 12:51:57;;;;;;;;;;;;;;;17.73;45.23;98369.59;10325510;28;1906;-71
2023/12/12 12:56:53;;;;;;;;;;;;;;;17.73;45.16;98359.03;10325877;28;783;-71
2023/12/12 13:01:49;;;;;;;;;;;;;;;17.72;45.25;98349.44;10326532;28;936;-70
2023/12/12 13:06:45;;;;;;;;;;;;;;;17.63;45.29;98344.78;10325237;28;1265;-70
2023/12/12 13:11:41;;;;;;;;;;;;;;;17.64;45.36;98343.84;10325413;28;1882;-72
2023/12/12 13:16:37;;;;;;;;;;;;;;;17.72;45.07;98331.00;10325426;28;869;-72
2023/12/12 13:21:33;;;;;;;;;;;;;;;17.72;45.29;98325.75;10323700;28;1066;-72
2023/12/12 13:26:29;;;;;;;;;;;;;;;17.69;45.36;98325.94;10325832;28;888;-72
2023/12/12 13:31:25;;;;;;;;;;;;;;;17.69;45.36;98323.31;10325846;28;1939;-71
2023/12/12 13:36:21;;;;;;;;;;;;;;;17.70;45.23;98322.34;10325113;28;1226;-72
2023/12/12 13:41:17;;;;;;;;;;;;;;;17.70;45.28;98318.88;10325467;28;874;-72
2023/12/12 13:46:13;;;;;;;;;;;;;;;17.72;45.30;98317.00;10324561;28;778;-72
2023/12/12 13:51:08;;;;;;;;;;;;;;;17.71;45.44;98305.63;10324640;28;1977;-72
2023/12/12 13:56:04;;;;;;;;;;;;;;;17.70;45.23;98295.16;10324503;28;920;-71
2023/12/12 14:01:00;;;;;;;;;;;;;;;17.71;45.50;98292.44;10324296;28;945;-71
2023/12/12 14:05:56;;;;;;;;;;;;;;;17.72;45.52;98296.75;10324829;28;790;-71
2023/12/12 14:10:52;;;;;;;;;;;;;;;17.71;45.43;98283.66;10324089;28;1915;-71
2023/12/12 14:15:48;;;;;;;;;;;;;;;17.71;45.37;98284.53;10324090;28;909;-71
2023/12/12 14:20:44;;;;;;;;;;;;;;;17.72;45.65;98270.41;10323842;28;913;-71
2023/12/12 14:25:40;;;;;;;;;;;;;;;17.73;45.57;98256.25;10323223;28;770;-71
2023/12/12 14:30:37;;;;;;;;;;;;;;;17.71;45.60;98252.03;10323606;28;1965;-71
2023/12/12 14:35:33;;;;;;;;;;;;;;;17.70;45.68;98242.47;10329301;28;1267;-71
2023/12/12 14:40:29;;;;;;;;;;;;;;;17.68;45.67;98225.91;10330693;28;874;-71
2023/12/12 14:45:25;;;;;;;;;;;;;;;17.61;45.78;98217.56;10329989;28;853;-71
2023/12/12 14:50:21;;;;;;;;;;;;;;;17.59;45.88;98218.63;10330241;28;1902;-71
2023/12/12 14:55:17;;;;;;;;;;;;;;;17.56;46.03;98224.94;10329556;28;957;-71
2023/12/12 15:00:13;;;;;;;;;;;;;;;17.56;46.21;98203.03;10330066;28;865;-71
2023/12/12 15:05:10;;;;;;;;;;;;;;;17.54;46.11;98200.47;10330342;28;950;-71
2023/12/12 15:10:06;;;;;;;;;;;;;;;17.57;45.88;98195.00;10329653;28;829;-71
2023/12/12 15:15:01;;;;;;;;;;;;;;;17.58;45.95;98198.47;10330139;28;1902;-69
2023/12/12 15:19:57;;;;;;;;;;;;;;;17.58;45.82;98187.94;10329296;28;739;-69
2023/12/12 15:24:54;;;;;;;;;;;;;;;17.55;46.14;98174.97;10329591;28;989;-70
2023/12/12 15:29:53;;;;;;;;;;;;;;;17.55;45.96;98164.44;10328928;28;929;-69
2023/12/12 15:34:50;;;;;;;;;;;;;;;17.56;46.36;98177.53;10328119;28;1902;-69
2023/12/12 15:39:46;;;;;;;;;;;;;;;17.60;45.94;98170.25;10328485;28;911;-69
2023/12/12 15:44:42;;;;;;;;;;;;;;;17.61;46.01;98159.63;10327218;28;978;-69
2023/12/12 15:49:38;;;;;;;;;;;;;;;17.63;45.81;98156.84;10328089;28;832;-70
2023/12/12 15:54:34;;;;;;;;;;;;;;;17.64;45.98;98134.84;10327174;28;1922;-69
2023/12/12 15:59:29;;;;;;;;;;;;;;;17.63;46.09;98128.75;10327689;28;869;-69
2023/12/12 16:04:25;;;;;;;;;;;;;;;17.66;45.93;98130.31;10327403;28;775;-70
2023/12/12 16:09:21;;;;;;;;;;;;;;;17.67;45.73;98122.28;10328119;28;850;-70
2023/12/12 16:14:17;;;;;;;;;;;;;;;17.64;45.84;98113.78;10326947;28;1961;-70
2023/12/12 16:19:13;;;;;;;;;;;;;;;17.65;46.02;98110.19;10326273;28;891;-69
2023/12/12 16:24:09;;;;;;;;;;;;;;;17.68;45.86;98118.72;10326629;28;878;-71
2023/12/12 16:29:05;;;;;;;;;;;;;;;17.67;46.04;98106.50;10326472;28;947;-74
2023/12/12 16:34:01;;;;;;;;;;;;;;;17.69;45.98;98103.75;10326071;28;1965;-69
2023/12/12 16:38:57;;;;;;;;;;;;;;;17.69;45.97;98088.78;10326721;28;921;-70
2023/12/12 16:43:53;;;;;;;;;;;;;;;17.72;45.89;98077.19;10325981;28;801;-73
2023/12/12 16:48:49;;;;;;;;;;;;;;;17.70;46.05;98066.75;10325821;28;930;-72
2023/12/12 16:53:45;;;;;;;;;;;;;;;17.72;46.01;98064.00;10326277;28;1981;-71
2023/12/12 16:58:41;;;;;;;;;;;;;;;17.72;46.16;98043.78;10325501;28;798;-71
2023/12/12 17:03:37;;;;;;;;;;;;;;;17.74;46.05;98038.41;10326398;28;846;-74
2023/12/12 17:08:33;;;;;;;;;;;;;;;17.77;45.90;98038.19;10326059;28;858;-71
2023/12/12 17:13:29;;;;;;;;;;;;;;;17.83;45.96;98034.31;10327248;28;1961;-71
2023/12/12 17:18:26;;;;;;;;;;;;;;;17.78;45.83;98017.94;10324907;28;857;-71
2023/12/12 17:23:22;;;;;;;;;;;;;;;17.80;46.00;98021.34;10325913;28;795;-71
2023/12/12 17:28:18;;;;;;;;;;;;;;;17.81;45.71;98044.94;10325192;28;770;-72
2023/12/12 17:33:14;;;;;;;;;;;;;;;17.81;46.01;98037.03;10325346;28;1967;-72
2023/12/12 17:38:10;;;;;;;;;;;;;;;17.79;46.00;98023.16;10324972;28;1124;-72
2023/12/12 17:43:06;;;;;;;;;;;;;;;17.85;45.75;98021.88;10324914;28;892;-71
2023/12/12 17:48:02;;;;;;;;;;;;;;;17.84;45.83;98012.25;10324260;28;1036;-71
2023/12/12 17:53:03;;;;;;;;;;;;;;;17.82;45.91;98014.19;10324704;28;1975;-71
2023/12/12 17:57:59;;;;;;;;;;;;;;;17.83;45.93;98000.88;10325306;28;774;-72
2023/12/12 18:02:55;;;;;;;;;;;;;;;17.82;45.72;97986.03;10324578;28;877;-71
2023/12/12 18:07:50;;;;;;;;;;;;;;;17.84;45.66;98007.00;10326180;28;831;-72
2023/12/12 18:12:46;;;;;;;;;;;;;;;17.87;45.83;97996.25;10332035;28;1901;-72
2023/12/12 18:17:42;;;;;;;;;;;;;;;17.88;45.87;97997.94;10332520;28;976;-72
2023/12/12 18:22:38;;;;;;;;;;;;;;;17.87;45.90;97993.63;10332326;28;807;-72
2023/12/12 18:27:36;;;;;;;;;;;;;;;17.86;45.83;98003.28;10331546;28;806;-71
2023/12/12 18:32:32;;;;;;;;;;;;;;;17.87;45.74;97986.53;10331911;28;1893;-71
2023/12/12 18:37:35;;;;;;;;;;;;;;;17.87;45.85;97980.44;10331491;28;1342;-71
2023/12/12 18:42:31;;;;;;;;;;;;;;;17.87;45.81;97970.72;10329653;28;1045;-71
2023/12/12 18:47:26;;;;;;;;;;;;;;;17.88;45.57;97974.19;10330836;28;803;-71
2023/12/12 18:52:22;;;;;;;;;;;;;;;17.89;45.79;97962.69;10329970;28;1905;-72
2023/12/12 18:57:21;;;;;;;;;;;;;;;17.90;45.78;97970.50;10331135;28;845;-72
2023/12/12 19:02:17;;;;;;;;;;;;;;;17.88;45.69;97948.69;10330876;28;901;-72
2023/12/12 19:07:13;;;;;;;;;;;;;;;17.94;45.77;97950.03;10330858;28;869;-71
2023/12/12 19:12:09;;;;;;;;;;;;;;;17.92;45.77;97938.75;10329822;28;1894;-71
2023/12/12 19:17:05;;;;;;;;;;;;;;;17.92;45.77;97941.38;10330447;28;934;-72
2023/12/12 19:22:01;;;;;;;;;;;;;;;17.90;45.79;97927.50;10329375;28;879;-71
2023/12/12 19:26:57;;;;;;;;;;;;;;;17.95;45.80;97941.19;10329319;28;1031;-71
2023/12/12 19:31:53;;;;;;;;;;;;;;;17.93;45.73;97935.19;10329685;28;1898;-71
2023/12/12 19:36:49;;;;;;;;;;;;;;;17.92;45.85;97923.81;10329559;28;1168;-71
2023/12/12 19:41:45;;;;;;;;;;;;;;;17.96;45.70;97927.03;10328762;28;823;-71
2023/12/12 19:46:41;;;;;;;;;;;;;;;17.93;45.72;97927.28;10328503;28;896;-72
2023/12/12 19:51:37;;;;;;;;;;;;;;;17.90;46.01;97930.13;10328899;28;1972;-71
2023/12/12 19:56:33;;;;;;;;;;;;;;;17.95;45.77;97935.91;10328211;28;766;-72
2023/12/12 20:01:29;;;;;;;;;;;;;;;17.95;45.72;97928.84;10327952;28;842;-71
2023/12/12 20:06:25;;;;;;;;;;;;;;;17.95;45.83;97928.84;10328325;28;830;-72
2023/12/12 20:11:21;;;;;;;;;;;;;;;17.95;45.84;97925.38;10327385;28;1898;-71
2023/12/12 20:16:19;;;;;;;;;;;;;;;17.97;45.74;97944.53;10327323;28;791;-71
2023/12/12 20:21:14;;;;;;;;;;;;;;;17.95;45.94;97930.66;10327068;28;1005;-72
2023/12/12 20:26:10;;;;;;;;;;;;;;;17.95;45.84;97915.66;10328138;28;992;-72
2023/12/12 20:31:06;;;;;;;;;;;;;;;17.94;45.99;97928.94;10326233;28;1967;-71
2023/12/12 20:36:02;;;;;;;;;;;;;;;17.97;45.88;97923.44;10326680;28;1156;-71
2023/12/12 20:40:58;;;;;;;;;;;;;;;17.95;45.78;97928.00;10327001;28;884;-72
2023/12/12 20:45:54;;;;;;;;;;;;;;;17.92;45.92;97922.94;10326939;28;870;-71
2023/12/12 20:50:50;;;;;;;;;;;;;;;17.88;46.09;97913.59;10326104;28;1977;-72
2023/12/12 20:55:46;;;;;;;;;;;;;;;17.90;46.08;97920.44;10326619;28;853;-71
2023/12/12 21:00:42;;;;;;;;;;;;;;;17.88;46.10;97913.59;10325906;28;902;-71
2023/12/12 21:05:38;;;;;;;;;;;;;;;17.86;46.15;97918.13;10325905;28;860;-72
2023/12/12 21:10:36;;;;;;;;;;;;;;;17.84;46.00;97906.84;10326111;28;1947;-71
2023/12/12 21:15:32;;;;;;;;;;;;;;;17.87;45.89;97906.63;10326126;28;798;-71
2023/12/12 21:20:28;;;;;;;;;;;;;;;17.83;45.90;97894.63;10325396;28;934;-72
2023/12/12 21:25:23;;;;;;;;;;;;;;;17.83;46.07;97881.44;10325369;28;925;-72
2023/12/12 21:30:20;;;;;;;;;;;;;;;17.83;46.05;97876.19;10325859;28;897;-71
2023/12/12 21:35:16;;;;;;;;;;;;;;;17.82;45.91;97877.97;10325219;28;1956;-71
2023/12/12 21:40:12;;;;;;;;;;;;;;;17.80;46.22;97871.13;10325597;28;882;-72
2023/12/12 21:45:10;;;;;;;;;;;;;;;17.80;46.05;97873.78;10330059;28;886;-71
2023/12/12 21:50:06;;;;;;;;;;;;;;;17.77;46.09;97868.69;10333045;28;985;-71
2023/12/12 21:55:02;;;;;;;;;;;;;;;17.74;46.23;97872.41;10333392;28;1965;-71
2023/12/12 21:59:58;;;;;;;;;;;;;;;17.73;46.19;97873.34;10333339;28;778;-71
2023/12/12 22:04:54;;;;;;;;;;;;;;;17.69;46.50;97866.63;10332450;28;867;-71
2023/12/12 22:09:50;;;;;;;;;;;;;;;17.64;46.36;97859.03;10332288;28;786;-72
2023/12/12 22:14:46;;;;;;;;;;;;;;;17.62;46.48;97865.38;10332342;28;1902;-72
2023/12/12 22:19:41;;;;;;;;;;;;;;;17.59;46.44;97857.69;10331816;28;795;-72
2023/12/12 22:24:39;;;;;;;;;;;;;;;17.56;46.44;97856.13;10331700;28;822;-71
2023/12/12 22:29:35;;;;;;;;;;;;;;;17.51;46.65;97855.63;10332092;28;795;-71
2023/12/12 22:34:31;;;;;;;;;;;;;;;17.47;46.65;97843.59;10331571;28;1951;-71
2023/12/12 22:39:27;;;;;;;;;;;;;;;17.45;46.54;97840.28;10331491;28;933;-72
2023/12/12 22:44:23;;;;;;;;;;;;;;;17.41;46.61;97838.78;10331026;28;798;-71
2023/12/12 22:49:19;;;;;;;;;;;;;;;17.40;46.61;97845.03;10331062;28;1006;-71
2023/12/12 22:54:15;;;;;;;;;;;;;;;17.37;46.58;97853.13;10330733;28;1975;-71
2023/12/12 22:59:11;;;;;;;;;;;;;;;17.34;46.61;97845.44;10331254;28;814;-71
2023/12/12 23:04:07;;;;;;;;;;;;;;;17.30;46.58;97840.41;10330322;28;848;-71
2023/12/12 23:09:05;;;;;;;;;;;;;;;17.29;46.72;97845.75;10330149;28;964;-71
2023/12/12 23:14:01;;;;;;;;;;;;;;;17.26;46.59;97886.31;10330402;28;1863;-71
2023/12/12 23:18:57;;;;;;;;;;;;;;;17.21;46.87;97888.47;10329803;28;1000;-72
2023/12/12 23:23:53;;;;;;;;;;;;;;;17.19;46.82;97881.63;10329580;28;929;-72
2023/12/12 23:28:49;;;;;;;;;;;;;;;17.18;46.69;97886.03;10330524;28;914;-71
2023/12/12 23:33:46;;;;;;;;;;;;;;;17.18;46.59;97888.66;10329698;28;1898;-71
2023/12/12 23:38:41;;;;;;;;;;;;;;;17.15;46.73;97867.81;10329401;28;1807;-71
2023/12/12 23:43:37;;;;;;;;;;;;;;;17.14;46.86;97860.03;10329673;28;834;-71
2023/12/12 23:48:33;;;;;;;;;;;;;;;17.06;47.15;97873.75;10329406;28;905;-71
2023/12/12 23:53:32;;;;;;;;;;;;;;;17.03;47.06;97860.81;10327678;28;1985;-71
2023/12/12 23:58:28;;;;;;;;;;;;;;;17.02;47.23;97856.47;10328727;28;858;-71
